Time;durP1;ratioP1;P1;durP2;ratioP2;P2;SDS_P1;SDS_P2;PMS_P1;PMS_P2;Temp;Humidity;BMP_temperature;BMP_pressure;BME280_temperature;BME280_humidity;BME280_pressure;Samples;Min_cycle;Max_cycle;Signal;HPM_P1;HPM_P2
2023/03/22 00:01:58;;;;;;;28.48;14.98;;;;;;;;;;5114296;28;20065;-72
2023/03/22 00:04:25;;;;;;;31.70;16.38;;;;;;;;;;5114484;28;20084;-73
2023/03/22 00:06:51;;;;;;;28.42;15.68;;;;;;;;;;5113673;28;20032;-75
2023/03/22 00:09:17;;;;;;;27.13;15.48;;;;;;;;;;5113723;28;20020;-73
2023/03/22 00:11:43;;;;;;;33.47;16.30;;;;;;;;;;5114108;28;20394;-73
2023/03/22 00:14:09;;;;;;;32.40;16.98;;;;;;;;;;5113699;28;20063;-74
2023/03/22 00:16:35;;;;;;;25.92;15.88;;;;;;;;;;5113561;28;20088;-74
2023/03/22 00:19:01;;;;;;;28.58;17.02;;;;;;;;;;5113669;28;20126;-75
2023/03/22 00:21:27;;;;;;;26.17;16.10;;;;;;;;;;5113491;28;20024;-73
2023/03/22 00:23:53;;;;;;;33.20;17.17;;;;;;;;;;5113195;28;20076;-73
2023/03/22 00:26:19;;;;;;;27.08;16.55;;;;;;;;;;5113302;28;20393;-73
2023/03/22 00:28:45;;;;;;;33.08;17.45;;;;;;;;;;5113699;28;20023;-72
2023/03/22 00:31:11;;;;;;;27.20;16.63;;;;;;;;;;5114225;28;20489;-73
2023/03/22 00:33:37;;;;;;;30.80;17.88;;;;;;;;;;5113819;28;20095;-73
2023/03/22 00:36:04;;;;;;;27.95;17.20;;;;;;;;;;5114113;28;20019;-73
2023/03/22 00:38:35;;;;;;;30.38;17.38;;;;;;;;;;5113704;28;20085;-74
2023/03/22 00:41:14;;;;;;;34.45;17.88;;;;;;;;;;5113526;28;20026;-73
2023/03/22 00:43:41;;;;;;;30.90;17.10;;;;;;;;;;5112993;28;20019;-74
2023/03/22 00:46:07;;;;;;;29.63;18.13;;;;;;;;;;5113075;28;20030;-75
2023/03/22 00:48:33;;;;;;;33.25;18.23;;;;;;;;;;5113525;28;20413;-74
2023/03/22 00:50:59;;;;;;;29.17;18.35;;;;;;;;;;5113315;28;20119;-75
2023/03/22 00:53:27;;;;;;;33.13;17.95;;;;;;;;;;5112824;28;20023;-74
2023/03/22 00:55:54;;;;;;;31.40;19.00;;;;;;;;;;5094849;28;20024;-74
2023/03/22 00:58:20;;;;;;;28.55;17.85;;;;;;;;;;5094725;28;20055;-74
2023/03/22 01:00:46;;;;;;;30.42;18.75;;;;;;;;;;5110775;28;20028;-74
2023/03/22 01:03:13;;;;;;;36.08;19.25;;;;;;;;;;5107545;28;20077;-73
2023/03/22 01:05:39;;;;;;;32.35;19.52;;;;;;;;;;5112465;28;20020;-72
2023/03/22 01:08:07;;;;;;;36.05;19.80;;;;;;;;;;5112324;28;20031;-73
2023/03/22 01:10:33;;;;;;;36.50;19.73;;;;;;;;;;5112484;28;20055;-72
2023/03/22 01:12:59;;;;;;;32.53;20.08;;;;;;;;;;5112400;28;20028;-71
2023/03/22 01:15:25;;;;;;;34.65;21.02;;;;;;;;;;5112614;28;20104;-72
2023/03/22 01:17:51;;;;;;;33.22;19.52;;;;;;;;;;5112468;28;20024;-73
2023/03/22 01:20:17;;;;;;;35.70;20.48;;;;;;;;;;5112491;28;20033;-73
2023/03/22 01:22:43;;;;;;;33.47;19.38;;;;;;;;;;5112184;28;20027;-72
2023/03/22 01:25:09;;;;;;;32.67;19.33;;;;;;;;;;5112486;28;20046;-73
2023/03/22 01:27:36;;;;;;;35.78;20.67;;;;;;;;;;5112711;28;20442;-72
2023/03/22 01:30:02;;;;;;;32.67;19.50;;;;;;;;;;5112197;28;20023;-72
2023/03/22 01:32:28;;;;;;;38.00;20.10;;;;;;;;;;5122539;28;20073;-73
2023/03/22 01:34:54;;;;;;;34.95;21.35;;;;;;;;;;5112255;28;20020;-73
2023/03/22 01:37:26;;;;;;;37.80;20.50;;;;;;;;;;5112260;28;20027;-73
2023/03/22 01:39:52;;;;;;;32.83;20.85;;;;;;;;;;5112341;28;20069;-74
2023/03/22 01:42:20;;;;;;;37.17;21.10;;;;;;;;;;5112184;28;20032;-75
2023/03/22 01:45:06;;;;;;;35.35;21.73;;;;;;;;;;5112335;28;20386;-73
2023/03/22 01:47:34;;;;;;;32.60;21.02;;;;;;;;;;5112093;28;20078;-75
2023/03/22 01:50:00;;;;;;;38.65;22.02;;;;;;;;;;5112244;28;20408;-73
2023/03/22 01:52:26;;;;;;;34.25;21.42;;;;;;;;;;5111897;28;20023;-74
2023/03/22 01:54:53;;;;;;;34.72;20.98;;;;;;;;;;5112291;28;20028;-74
2023/03/22 01:57:19;;;;;;;37.30;20.75;;;;;;;;;;5112211;28;20023;-73
2023/03/22 01:59:46;;;;;;;34.13;20.40;;;;;;;;;;5112358;28;20058;-74
2023/03/22 02:02:17;;;;;;;39.35;21.08;;;;;;;;;;5111841;28;20019;-74
2023/03/22 02:04:45;;;;;;;39.03;21.35;;;;;;;;;;5112062;28;20032;-73
2023/03/22 02:07:14;;;;;;;38.28;20.80;;;;;;;;;;5111847;28;20057;-73
2023/03/22 02:09:41;;;;;;;39.22;21.65;;;;;;;;;;5111960;28;20016;-73
2023/03/22 02:12:26;;;;;;;33.17;20.75;;;;;;;;;;5111999;28;20016;-76
2023/03/22 02:14:57;;;;;;;35.90;21.33;;;;;;;;;;5113268;28;20469;-72
2023/03/22 02:17:42;;;;;;;38.90;19.58;;;;;;;;;;5116547;28;20026;-72
2023/03/22 02:20:37;;;;;;;32.13;20.40;;;;;;;;;;5116479;28;20032;-72
2023/03/22 02:23:04;;;;;;;40.08;20.33;;;;;;;;;;5115839;28;20088;-71
2023/03/22 02:25:43;;;;;;;36.63;20.88;;;;;;;;;;5115043;28;20389;-72
2023/03/22 02:28:24;;;;;;;34.40;19.90;;;;;;;;;;5114821;28;20023;-73
2023/03/22 02:31:02;;;;;;;35.28;20.15;;;;;;;;;;5116177;28;20064;-72
2023/03/22 02:33:28;;;;;;;32.00;19.63;;;;;;;;;;5116105;28;20023;-73
2023/03/22 02:36:21;;;;;;;36.58;19.73;;;;;;;;;;5114415;28;20389;-74
2023/03/22 02:38:51;;;;;;;36.65;20.40;;;;;;;;;;5111624;28;20569;-74
2023/03/22 02:41:17;;;;;;;31.10;20.02;;;;;;;;;;5114706;28;20067;-72
2023/03/22 02:44:02;;;;;;;36.00;20.23;;;;;;;;;;5114857;28;20485;-74
2023/03/22 02:46:30;;;;;;;33.55;20.90;;;;;;;;;;5115389;28;20477;-74
2023/03/22 02:49:14;;;;;;;35.38;20.60;;;;;;;;;;5115167;28;20081;-73
2023/03/22 02:51:48;;;;;;;33.42;20.45;;;;;;;;;;5115800;28;20106;-74
2023/03/22 02:54:27;;;;;;;33.83;20.02;;;;;;;;;;5115145;27;20492;-72
2023/03/22 02:56:57;;;;;;;29.42;20.08;;;;;;;;;;5115287;28;20106;-73
2023/03/22 02:59:24;;;;;;;35.40;19.75;;;;;;;;;;5115114;27;20042;-72
2023/03/22 03:01:52;;;;;;;35.72;20.30;;;;;;;;;;5114820;28;20024;-73
2023/03/22 03:04:25;;;;;;;31.42;19.55;;;;;;;;;;5114850;27;20110;-73
2023/03/22 03:06:53;;;;;;;41.10;21.38;;;;;;;;;;5114905;28;20385;-74
2023/03/22 03:09:20;;;;;;;32.92;19.55;;;;;;;;;;5114807;28;20061;-73
2023/03/22 03:11:50;;;;;;;36.17;19.00;;;;;;;;;;5114768;28;20450;-73
2023/03/22 03:14:24;;;;;;;29.80;19.00;;;;;;;;;;5114937;28;20551;-73
2023/03/22 03:17:17;;;;;;;33.63;19.95;;;;;;;;;;5114771;28;20026;-74
2023/03/22 03:19:52;;;;;;;29.13;18.13;;;;;;;;;;5083885;27;20039;-73
2023/03/22 03:22:18;;;;;;;33.45;19.63;;;;;;;;;;5115816;28;20031;-72
2023/03/22 03:25:07;;;;;;;34.38;19.10;;;;;;;;;;5116015;28;20130;-72
2023/03/22 03:27:39;;;;;;;33.25;18.75;;;;;;;;;;5077504;28;20035;-73
2023/03/22 03:30:15;;;;;;;37.47;19.02;;;;;;;;;;5115480;27;20031;-73
2023/03/22 03:32:47;;;;;;;38.42;19.67;;;;;;;;;;5114209;28;20144;-72
2023/03/22 03:35:21;;;;;;;38.00;20.30;;;;;;;;;;5114402;27;20035;-74
2023/03/22 03:37:49;;;;;;;32.15;18.77;;;;;;;;;;5114446;28;20020;-72
2023/03/22 03:40:20;;;;;;;34.58;19.23;;;;;;;;;;5114413;27;20477;-72
2023/03/22 03:42:51;;;;;;;30.50;19.10;;;;;;;;;;5114229;28;20102;-72
2023/03/22 03:45:18;;;;;;;41.10;18.40;;;;;;;;;;5114393;28;20034;-72
2023/03/22 03:47:45;;;;;;;30.70;18.42;;;;;;;;;;5114604;28;20030;-72
2023/03/22 03:50:12;;;;;;;35.47;19.60;;;;;;;;;;5114093;28;20030;-72
2023/03/22 03:52:38;;;;;;;31.75;19.02;;;;;;;;;;5113732;28;20027;-72
2023/03/22 03:55:04;;;;;;;31.98;18.95;;;;;;;;;;5123949;27;20028;-72
2023/03/22 03:57:30;;;;;;;36.47;19.85;;;;;;;;;;5134314;27;20060;-72
2023/03/22 03:59:56;;;;;;;30.48;18.30;;;;;;;;;;5137126;27;20035;-72
2023/03/22 04:02:22;;;;;;;36.70;19.88;;;;;;;;;;5137863;27;20023;-75
2023/03/22 04:04:49;;;;;;;31.35;19.10;;;;;;;;;;5139813;27;20110;-75
2023/03/22 04:07:15;;;;;;;31.38;18.48;;;;;;;;;;5117924;27;20038;-75
2023/03/22 04:09:41;;;;;;;31.55;17.92;;;;;;;;;;5116033;27;20114;-72
2023/03/22 04:12:11;;;;;;;34.25;18.38;;;;;;;;;;5133990;27;20354;-73
2023/03/22 04:14:37;;;;;;;31.60;18.27;;;;;;;;;;5134207;27;20023;-73
2023/03/22 04:17:03;;;;;;;30.27;17.73;;;;;;;;;;5134234;27;20067;-72
2023/03/22 04:19:29;;;;;;;37.40;17.83;;;;;;;;;;5115583;27;20027;-72
2023/03/22 04:21:55;;;;;;;36.20;18.17;;;;;;;;;;5133662;27;20023;-73
2023/03/22 04:24:22;;;;;;;27.80;16.88;;;;;;;;;;5133955;27;20045;-72
2023/03/22 04:26:48;;;;;;;32.85;17.88;;;;;;;;;;5133744;27;20023;-71
2023/03/22 04:29:14;;;;;;;31.00;16.95;;;;;;;;;;5133402;27;20034;-72
2023/03/22 04:31:40;;;;;;;32.22;17.13;;;;;;;;;;5133784;27;20089;-72
2023/03/22 04:34:06;;;;;;;33.88;18.02;;;;;;;;;;5123184;27;20486;-73
2023/03/22 04:36:35;;;;;;;33.15;16.67;;;;;;;;;;5114613;28;20078;-74
2023/03/22 04:39:06;;;;;;;31.33;17.30;;;;;;;;;;5114473;28;20047;-73
2023/03/22 04:41:32;;;;;;;28.85;16.38;;;;;;;;;;5112776;28;20051;-74
2023/03/22 04:44:02;;;;;;;32.35;16.85;;;;;;;;;;5109401;28;20080;-74
2023/03/22 04:46:28;;;;;;;27.20;16.42;;;;;;;;;;5113236;28;20386;-74
2023/03/22 04:48:54;;;;;;;25.15;15.90;;;;;;;;;;5109181;28;20023;-75
2023/03/22 04:51:20;;;;;;;29.98;15.93;;;;;;;;;;5112856;28;20031;-71
2023/03/22 04:53:46;;;;;;;34.08;17.40;;;;;;;;;;5100727;28;20024;-75
2023/03/22 04:56:13;;;;;;;33.17;16.10;;;;;;;;;;5112590;28;20016;-75
2023/03/22 04:58:39;;;;;;;29.27;16.90;;;;;;;;;;5112495;28;20102;-75
2023/03/22 05:01:06;;;;;;;33.60;16.88;;;;;;;;;;5113574;28;20388;-74
2023/03/22 05:03:32;;;;;;;32.70;16.80;;;;;;;;;;5114178;28;20031;-73
2023/03/22 05:05:59;;;;;;;27.00;15.68;;;;;;;;;;5113235;28;20023;-76
2023/03/22 05:08:26;;;;;;;30.67;16.45;;;;;;;;;;5110397;28;20027;-75
2023/03/22 05:10:53;;;;;;;27.20;15.13;;;;;;;;;;5112011;28;20023;-74
2023/03/22 05:13:20;;;;;;;29.05;15.85;;;;;;;;;;5112217;28;20073;-75
2023/03/22 05:15:47;;;;;;;29.13;15.85;;;;;;;;;;5112195;28;20012;-70
2023/03/22 05:18:13;;;;;;;31.45;17.25;;;;;;;;;;5112770;28;20027;-72
2023/03/22 05:20:40;;;;;;;29.02;15.20;;;;;;;;;;5112302;28;20030;-71
2023/03/22 05:23:08;;;;;;;29.85;14.65;;;;;;;;;;5112064;28;20035;-71
2023/03/22 05:25:34;;;;;;;29.45;15.95;;;;;;;;;;5112292;28;20375;-72
2023/03/22 05:28:00;;;;;;;31.70;15.52;;;;;;;;;;5112170;28;20028;-71
2023/03/22 05:30:28;;;;;;;27.88;14.55;;;;;;;;;;5111899;28;20027;-73
2023/03/22 05:32:58;;;;;;;25.83;15.75;;;;;;;;;;5112106;28;20027;-72
2023/03/22 05:35:25;;;;;;;29.75;14.90;;;;;;;;;;5112226;28;20481;-71
2023/03/22 05:37:51;;;;;;;28.65;14.93;;;;;;;;;;5112151;28;20399;-72
2023/03/22 05:40:17;;;;;;;30.98;15.05;;;;;;;;;;5109189;28;20108;-75
2023/03/22 05:42:45;;;;;;;28.42;15.15;;;;;;;;;;5094741;28;20063;-75
2023/03/22 05:45:11;;;;;;;28.40;14.35;;;;;;;;;;5107585;28;20073;-75
2023/03/22 05:47:38;;;;;;;25.52;14.77;;;;;;;;;;5112305;28;20476;-73
2023/03/22 05:50:05;;;;;;;27.60;13.80;;;;;;;;;;5114666;28;20020;-72
2023/03/22 05:52:31;;;;;;;25.80;14.45;;;;;;;;;;5116777;28;20020;-72
2023/03/22 05:54:57;;;;;;;30.30;14.52;;;;;;;;;;5116418;28;20357;-72
2023/03/22 05:57:23;;;;;;;27.65;15.10;;;;;;;;;;5116708;28;20356;-71
2023/03/22 05:59:52;;;;;;;31.67;13.82;;;;;;;;;;5117020;28;20027;-72
2023/03/22 06:02:18;;;;;;;30.95;14.30;;;;;;;;;;5116028;28;20107;-72
2023/03/22 06:04:45;;;;;;;28.13;13.82;;;;;;;;;;5116161;28;20028;-74
2023/03/22 06:07:11;;;;;;;24.70;13.52;;;;;;;;;;5115775;28;20110;-75
2023/03/22 06:09:37;;;;;;;30.50;13.82;;;;;;;;;;5115701;28;20157;-75
2023/03/22 06:12:04;;;;;;;25.85;13.25;;;;;;;;;;5115331;28;20023;-72
2023/03/22 06:14:30;;;;;;;35.17;14.32;;;;;;;;;;5116041;28;20384;-72
2023/03/22 06:16:56;;;;;;;24.75;13.55;;;;;;;;;;5116202;28;20020;-73
2023/03/22 06:19:24;;;;;;;25.58;13.10;;;;;;;;;;5115934;28;20038;-72
2023/03/22 06:21:51;;;;;;;24.63;12.63;;;;;;;;;;5115525;28;20106;-73
2023/03/22 06:24:17;;;;;;;25.75;13.25;;;;;;;;;;5115598;28;20032;-73
2023/03/22 06:26:43;;;;;;;26.45;12.50;;;;;;;;;;5115517;28;20051;-73
2023/03/22 06:29:09;;;;;;;26.65;12.73;;;;;;;;;;5112361;28;20064;-77
2023/03/22 06:31:35;;;;;;;23.55;11.68;;;;;;;;;;5115961;28;20073;-74
2023/03/22 06:34:02;;;;;;;29.52;12.85;;;;;;;;;;5114890;28;20076;-75
2023/03/22 06:36:29;;;;;;;25.02;11.77;;;;;;;;;;5108329;28;20481;-73
2023/03/22 06:38:56;;;;;;;28.25;12.52;;;;;;;;;;5116466;27;20080;-76
2023/03/22 06:41:22;;;;;;;22.08;11.10;;;;;;;;;;5111990;28;20028;-75
2023/03/22 06:43:47;;;;;;;25.17;12.23;;;;;;;;;;5114540;28;20499;-74
2023/03/22 06:46:14;;;;;;;28.08;11.05;;;;;;;;;;5111553;28;20032;-73
2023/03/22 06:48:40;;;;;;;20.35;11.77;;;;;;;;;;5109884;28;20107;-75
2023/03/22 06:51:06;;;;;;;29.92;12.05;;;;;;;;;;5115701;28;20126;-74
2023/03/22 06:53:32;;;;;;;27.42;11.75;;;;;;;;;;5104896;28;20039;-74
2023/03/22 06:55:58;;;;;;;27.75;10.80;;;;;;;;;;5114610;28;20031;-76
2023/03/22 06:58:24;;;;;;;25.90;11.50;;;;;;;;;;5115403;28;20023;-75
2023/03/22 07:00:50;;;;;;;24.52;11.18;;;;;;;;;;5112273;28;20022;-74
2023/03/22 07:03:17;;;;;;;23.20;10.35;;;;;;;;;;5117797;28;20024;-74
2023/03/22 07:05:43;;;;;;;21.35;11.20;;;;;;;;;;5117697;28;20032;-75
2023/03/22 07:08:09;;;;;;;22.80;10.23;;;;;;;;;;5116540;28;20031;-76
2023/03/22 07:10:35;;;;;;;25.73;10.68;;;;;;;;;;5116729;28;20031;-74
2023/03/22 07:13:02;;;;;;;26.63;10.98;;;;;;;;;;5103604;28;20084;-75
2023/03/22 07:15:28;;;;;;;30.80;12.40;;;;;;;;;;5115988;28;20544;-73
2023/03/22 07:17:54;;;;;;;30.23;11.27;;;;;;;;;;5114537;28;20026;-73
2023/03/22 07:20:20;;;;;;;25.67;11.93;;;;;;;;;;5115656;28;20061;-75
2023/03/22 07:22:46;;;;;;;20.10;11.02;;;;;;;;;;5114675;28;20027;-76
2023/03/22 07:25:12;;;;;;;23.65;11.02;;;;;;;;;;5114793;28;20110;-77
2023/03/22 07:27:38;;;;;;;24.67;11.65;;;;;;;;;;5114620;28;20038;-74
2023/03/22 07:30:05;;;;;;;24.08;11.50;;;;;;;;;;5115213;28;20080;-76
2023/03/22 07:32:31;;;;;;;25.75;11.55;;;;;;;;;;5114233;28;20095;-73
2023/03/22 07:34:57;;;;;;;26.27;10.95;;;;;;;;;;5114634;28;20074;-72
2023/03/22 07:37:23;;;;;;;25.67;11.32;;;;;;;;;;5114423;28;20020;-74
2023/03/22 07:39:49;;;;;;;24.33;11.73;;;;;;;;;;5114576;28;20032;-73
2023/03/22 07:42:15;;;;;;;30.77;11.50;;;;;;;;;;5114251;28;20032;-73
2023/03/22 07:44:41;;;;;;;27.33;12.27;;;;;;;;;;5114308;28;20427;-76
2023/03/22 07:47:07;;;;;;;24.83;11.38;;;;;;;;;;5114156;28;20480;-78
2023/03/22 07:49:34;;;;;;;27.83;12.57;;;;;;;;;;5114017;28;20054;-75
2023/03/22 07:52:00;;;;;;;24.75;12.32;;;;;;;;;;5114237;28;20045;-75
2023/03/22 07:54:26;;;;;;;28.73;13.52;;;;;;;;;;5114378;28;20392;-78
2023/03/22 07:56:52;;;;;;;28.83;13.52;;;;;;;;;;5112613;28;20027;-74
2023/03/22 07:59:18;;;;;;;25.77;13.68;;;;;;;;;;5110410;28;20077;-72
2023/03/22 08:01:44;;;;;;;25.60;13.27;;;;;;;;;;5113005;28;20019;-75
2023/03/22 08:04:10;;;;;;;29.27;13.70;;;;;;;;;;5113012;28;20434;-72
2023/03/22 08:06:36;;;;;;;28.73;12.70;;;;;;;;;;5112297;28;20031;-72
2023/03/22 08:09:04;;;;;;;32.85;14.82;;;;;;;;;;5112759;27;20080;-72
2023/03/22 08:11:30;;;;;;;28.08;14.13;;;;;;;;;;5111677;28;20351;-71
2023/03/22 08:13:56;;;;;;;23.75;13.60;;;;;;;;;;5111722;28;20423;-71
2023/03/22 08:16:22;;;;;;;27.52;14.25;;;;;;;;;;5113063;28;20108;-73
2023/03/22 08:18:48;;;;;;;27.67;14.68;;;;;;;;;;5112522;28;20380;-73
2023/03/22 08:21:14;;;;;;;32.28;14.93;;;;;;;;;;5112271;28;20027;-73
2023/03/22 08:23:40;;;;;;;30.48;14.75;;;;;;;;;;5112244;28;20437;-72
2023/03/22 08:26:06;;;;;;;25.95;14.45;;;;;;;;;;5112771;28;20028;-73
2023/03/22 08:28:32;;;;;;;30.58;15.23;;;;;;;;;;5112455;28;20036;-74
2023/03/22 08:30:58;;;;;;;27.38;15.18;;;;;;;;;;5111734;28;20034;-71
2023/03/22 08:33:24;;;;;;;38.17;16.38;;;;;;;;;;5112501;27;20027;-72
2023/03/22 08:35:50;;;;;;;26.92;13.13;;;;;;;;;;5112227;28;20023;-72
2023/03/22 08:38:17;;;;;;;26.65;14.43;;;;;;;;;;5112266;28;20485;-71
2023/03/22 08:40:45;;;;;;;25.30;13.50;;;;;;;;;;5112428;28;20392;-71
2023/03/22 08:43:11;;;;;;;26.95;14.05;;;;;;;;;;5111750;27;20052;-71
2023/03/22 08:45:37;;;;;;;30.60;14.75;;;;;;;;;;5111881;28;20098;-71
2023/03/22 08:48:03;;;;;;;24.00;13.25;;;;;;;;;;5111665;27;20068;-73
2023/03/22 08:50:33;;;;;;;30.52;13.93;;;;;;;;;;5111545;28;20020;-71
2023/03/22 08:52:59;;;;;;;24.33;13.45;;;;;;;;;;5111476;28;20020;-71
2023/03/22 08:55:25;;;;;;;19.48;12.80;;;;;;;;;;5111844;28;20020;-71
2023/03/22 08:57:51;;;;;;;29.40;13.88;;;;;;;;;;5112804;28;20486;-73
2023/03/22 09:00:18;;;;;;;26.10;12.30;;;;;;;;;;5113388;28;20032;-72
2023/03/22 09:02:44;;;;;;;30.52;12.45;;;;;;;;;;5112527;28;20072;-73
2023/03/22 09:05:12;;;;;;;24.33;11.98;;;;;;;;;;5112710;28;20028;-72
2023/03/22 09:07:38;;;;;;;22.55;11.10;;;;;;;;;;5110904;28;20027;-74
2023/03/22 09:10:04;;;;;;;20.40;10.77;;;;;;;;;;5112486;28;20469;-71
2023/03/22 09:12:30;;;;;;;20.95;10.10;;;;;;;;;;5094027;28;20435;-74
2023/03/22 09:14:56;;;;;;;28.08;11.65;;;;;;;;;;5112576;28;20092;-73
2023/03/22 09:17:22;;;;;;;24.02;10.40;;;;;;;;;;5112247;28;20054;-73
2023/03/22 09:19:48;;;;;;;29.55;10.88;;;;;;;;;;5112497;28;20032;-72
2023/03/22 09:22:14;;;;;;;23.35;10.65;;;;;;;;;;5112185;28;20370;-73
2023/03/22 09:24:40;;;;;;;27.92;10.23;;;;;;;;;;5111936;28;20034;-73
2023/03/22 09:27:06;;;;;;;19.02;10.00;;;;;;;;;;5112441;28;20489;-72
2023/03/22 09:29:32;;;;;;;19.73;9.70;;;;;;;;;;5112285;28;20036;-72
2023/03/22 09:31:58;;;;;;;18.45;9.55;;;;;;;;;;5112002;28;20103;-74
2023/03/22 09:34:24;;;;;;;23.88;10.23;;;;;;;;;;5112334;28;20031;-73
2023/03/22 09:36:51;;;;;;;24.10;9.73;;;;;;;;;;5112784;28;20420;-76
2023/03/22 09:39:17;;;;;;;29.27;10.52;;;;;;;;;;5114571;28;20016;-79
2023/03/22 09:41:43;;;;;;;22.27;10.07;;;;;;;;;;5113120;28;20023;-75
2023/03/22 09:44:21;;;;;;;20.88;9.48;;;;;;;;;;5112360;28;20024;-75
2023/03/22 09:46:51;;;;;;;26.90;10.30;;;;;;;;;;5112796;28;20058;-75
2023/03/22 09:49:18;;;;;;;23.92;8.77;;;;;;;;;;5113484;28;20107;-76
2023/03/22 09:51:47;;;;;;;19.27;9.15;;;;;;;;;;5093979;28;20461;-77
2023/03/22 09:54:13;;;;;;;22.75;8.60;;;;;;;;;;5112744;28;20031;-77
2023/03/22 09:56:39;;;;;;;19.52;8.25;;;;;;;;;;5112219;28;20023;-73
2023/03/22 09:59:05;;;;;;;23.92;8.15;;;;;;;;;;5110684;28;20028;-72
2023/03/22 10:01:37;;;;;;;19.00;7.80;;;;;;;;;;5111647;28;20035;-72
2023/03/22 10:04:12;;;;;;;18.58;7.70;;;;;;;;;;5110702;28;20039;-73
2023/03/22 10:06:39;;;;;;;25.25;7.43;;;;;;;;;;5112390;28;20038;-73
2023/03/22 10:09:24;;;;;;;16.67;6.82;;;;;;;;;;5119073;28;20032;-76
2023/03/22 10:11:59;;;;;;;23.60;7.53;;;;;;;;;;5132161;28;20047;-74
2023/03/22 10:14:42;;;;;;;17.90;7.68;;;;;;;;;;5132072;27;20023;-72
2023/03/22 10:17:14;;;;;;;21.20;6.95;;;;;;;;;;5132235;28;20019;-73
2023/03/22 10:19:40;;;;;;;21.67;6.82;;;;;;;;;;5131946;28;20109;-72
2023/03/22 10:22:08;;;;;;;19.85;6.20;;;;;;;;;;5132079;27;20073;-72
2023/03/22 10:24:36;;;;;;;16.67;5.50;;;;;;;;;;5131752;28;20114;-71
2023/03/22 10:27:02;;;;;;;22.92;6.18;;;;;;;;;;5131889;28;20020;-72
2023/03/22 10:29:33;;;;;;;11.98;5.22;;;;;;;;;;5131357;28;20027;-71
2023/03/22 10:32:10;;;;;;;18.30;5.60;;;;;;;;;;5131636;28;20026;-71
2023/03/22 10:34:35;;;;;;;26.70;5.57;;;;;;;;;;5131630;27;20031;-71
2023/03/22 10:37:03;;;;;;;18.20;4.93;;;;;;;;;;5135862;27;20115;-72
2023/03/22 10:39:32;;;;;;;13.65;4.80;;;;;;;;;;5135533;27;20531;-73
2023/03/22 10:42:00;;;;;;;19.10;5.70;;;;;;;;;;5135650;27;20144;-74
2023/03/22 10:44:28;;;;;;;16.90;4.85;;;;;;;;;;5135568;27;20548;-72
2023/03/22 10:46:55;;;;;;;16.25;4.72;;;;;;;;;;5136012;27;20077;-72
2023/03/22 10:49:25;;;;;;;14.73;4.40;;;;;;;;;;5137523;27;20023;-74
2023/03/22 10:51:53;;;;;;;20.95;5.18;;;;;;;;;;5140729;27;20020;-75
2023/03/22 10:54:20;;;;;;;17.83;4.20;;;;;;;;;;5137675;27;20015;-73
2023/03/22 10:56:46;;;;;;;16.05;4.10;;;;;;;;;;5136768;27;20023;-73
2023/03/22 10:59:35;;;;;;;16.25;4.28;;;;;;;;;;5137448;27;20469;-72
2023/03/22 11:02:01;;;;;;;20.55;4.78;;;;;;;;;;5124215;27;20031;-72
2023/03/22 11:04:30;;;;;;;12.88;4.00;;;;;;;;;;5135811;27;20076;-74
2023/03/22 11:06:56;;;;;;;17.27;4.13;;;;;;;;;;5135487;27;20050;-72
2023/03/22 11:09:23;;;;;;;18.40;4.00;;;;;;;;;;5135277;27;20361;-73
2023/03/22 11:11:53;;;;;;;20.15;4.45;;;;;;;;;;5135124;27;20023;-71
2023/03/22 11:14:27;;;;;;;15.60;3.58;;;;;;;;;;5117304;27;20072;-72
2023/03/22 11:16:55;;;;;;;17.83;4.27;;;;;;;;;;5116728;27;20023;-71
2023/03/22 11:19:26;;;;;;;19.80;3.80;;;;;;;;;;5135132;27;20026;-71
2023/03/22 11:21:54;;;;;;;15.13;3.63;;;;;;;;;;5134675;27;20058;-73
2023/03/22 11:24:21;;;;;;;16.27;3.85;;;;;;;;;;5135216;27;20027;-70
2023/03/22 11:27:06;;;;;;;14.93;3.80;;;;;;;;;;5134215;27;20023;-73
2023/03/22 11:29:45;;;;;;;16.60;4.30;;;;;;;;;;5135082;27;20023;-73
2023/03/22 11:32:32;;;;;;;16.35;3.80;;;;;;;;;;5134956;27;20372;-71
2023/03/22 11:35:13;;;;;;;18.08;3.92;;;;;;;;;;5135361;27;20205;-72
2023/03/22 11:37:42;;;;;;;11.52;3.53;;;;;;;;;;5134877;27;20131;-73
2023/03/22 11:40:16;;;;;;;20.95;4.47;;;;;;;;;;5134811;27;20123;-71
2023/03/22 11:42:42;;;;;;;10.23;3.90;;;;;;;;;;5134543;27;20524;-72
2023/03/22 11:45:13;;;;;;;17.85;3.95;;;;;;;;;;5135076;27;20028;-72
2023/03/22 11:47:39;;;;;;;17.42;3.20;;;;;;;;;;5133857;27;20110;-73
2023/03/22 11:50:08;;;;;;;22.50;3.72;;;;;;;;;;5134667;27;20039;-72
2023/03/22 11:52:34;;;;;;;9.50;3.03;;;;;;;;;;5134361;27;20441;-71
2023/03/22 11:55:01;;;;;;;18.38;3.13;;;;;;;;;;5134718;27;20469;-71
2023/03/22 11:57:29;;;;;;;13.52;3.15;;;;;;;;;;5134382;27;20098;-72
2023/03/22 12:00:01;;;;;;;15.63;3.25;;;;;;;;;;5135101;27;20031;-73
2023/03/22 12:02:34;;;;;;;13.73;2.97;;;;;;;;;;5134312;27;20164;-71
2023/03/22 12:05:05;;;;;;;11.82;3.22;;;;;;;;;;5134753;27;20291;-73
2023/03/22 12:07:33;;;;;;;13.82;2.80;;;;;;;;;;5134206;27;20481;-74
2023/03/22 12:10:14;;;;;;;17.02;3.35;;;;;;;;;;5134430;27;20105;-72
2023/03/22 12:12:43;;;;;;;11.65;3.10;;;;;;;;;;5134193;27;20015;-76
2023/03/22 12:15:30;;;;;;;14.80;3.25;;;;;;;;;;5134497;27;20585;-73
2023/03/22 12:17:58;;;;;;;15.20;3.10;;;;;;;;;;5134280;27;20034;-73
2023/03/22 12:20:56;;;;;;;12.48;3.00;;;;;;;;;;5134020;27;20019;-72
2023/03/22 12:23:36;;;;;;;13.68;3.00;;;;;;;;;;5077720;27;20074;-72
2023/03/22 12:26:05;;;;;;;13.07;3.03;;;;;;;;;;5134184;27;20023;-74
2023/03/22 12:28:51;;;;;;;21.70;3.63;;;;;;;;;;5133720;27;20487;-73
2023/03/22 12:31:29;;;;;;;11.98;2.72;;;;;;;;;;5133163;27;20102;-72
2023/03/22 12:33:57;;;;;;;12.18;3.28;;;;;;;;;;5133804;27;20020;-73
2023/03/22 12:36:26;;;;;;;16.80;3.20;;;;;;;;;;5133369;27;20020;-74
2023/03/22 12:38:55;;;;;;;16.45;3.92;;;;;;;;;;5133428;27;20087;-73
2023/03/22 12:41:25;;;;;;;12.40;3.00;;;;;;;;;;5133692;27;20102;-72
2023/03/22 12:43:52;;;;;;;11.10;3.42;;;;;;;;;;5133428;27;20099;-72
2023/03/22 12:46:23;;;;;;;9.45;3.28;;;;;;;;;;5133796;27;20031;-73
2023/03/22 12:49:10;;;;;;;18.40;3.83;;;;;;;;;;5133470;27;20027;-74
2023/03/22 12:51:36;;;;;;;14.18;3.78;;;;;;;;;;5082357;27;20043;-72
2023/03/22 12:54:02;;;;;;;18.75;4.80;;;;;;;;;;5133123;27;20027;-73
2023/03/22 12:56:28;;;;;;;18.92;3.78;;;;;;;;;;5133470;27;20027;-73
2023/03/22 12:58:57;;;;;;;14.32;4.00;;;;;;;;;;5133195;27;20118;-77
2023/03/22 13:01:38;;;;;;;15.18;4.05;;;;;;;;;;5133579;27;20058;-72
2023/03/22 13:04:23;;;;;;;12.48;3.38;;;;;;;;;;5133649;27;20035;-73
2023/03/22 13:06:52;;;;;;;13.05;3.25;;;;;;;;;;5132989;27;20478;-72
2023/03/22 13:09:27;;;;;;;14.97;3.80;;;;;;;;;;5132798;27;20038;-73
2023/03/22 13:12:12;;;;;;;13.02;3.58;;;;;;;;;;5132850;27;20024;-74
2023/03/22 13:14:50;;;;;;;17.38;5.40;;;;;;;;;;5133269;27;20046;-74
2023/03/22 13:17:22;;;;;;;15.68;4.03;;;;;;;;;;5134662;27;20019;-78
2023/03/22 13:19:52;;;;;;;14.90;4.22;;;;;;;;;;5116404;27;20027;-79
2023/03/22 13:22:37;;;;;;;12.13;3.30;;;;;;;;;;5134664;27;20042;-76
2023/03/22 13:25:07;;;;;;;15.45;3.67;;;;;;;;;;5130806;27;20031;-72
2023/03/22 13:27:38;;;;;;;15.77;4.10;;;;;;;;;;5111738;28;20034;-73
2023/03/22 13:30:08;;;;;;;15.30;3.78;;;;;;;;;;5112067;28;20499;-73
2023/03/22 13:32:36;;;;;;;14.05;4.03;;;;;;;;;;5112020;28;20099;-73
2023/03/22 13:35:02;;;;;;;15.95;4.10;;;;;;;;;;5112971;28;20050;-73
2023/03/22 13:37:30;;;;;;;13.93;4.00;;;;;;;;;;5109485;28;20416;-72
2023/03/22 13:40:01;;;;;;;13.73;3.90;;;;;;;;;;5104447;28;20024;-73
2023/03/22 13:42:37;;;;;;;17.02;4.70;;;;;;;;;;5111487;28;20023;-72
2023/03/22 13:45:07;;;;;;;20.17;4.82;;;;;;;;;;5109231;28;20153;-72
2023/03/22 13:47:35;;;;;;;13.15;4.53;;;;;;;;;;5109363;28;20110;-71
2023/03/22 13:50:03;;;;;;;18.05;4.32;;;;;;;;;;5109892;28;20114;-73
2023/03/22 13:52:43;;;;;;;14.25;5.80;;;;;;;;;;5110992;28;20019;-73
2023/03/22 13:55:29;;;;;;;14.80;4.35;;;;;;;;;;5106948;28;20051;-73
2023/03/22 13:57:57;;;;;;;18.20;5.47;;;;;;;;;;5093395;28;20032;-71
2023/03/22 14:00:30;;;;;;;23.55;5.00;;;;;;;;;;5111475;28;20024;-72
2023/03/22 14:03:00;;;;;;;13.02;4.40;;;;;;;;;;5103742;28;20482;-72
2023/03/22 14:05:30;;;;;;;16.05;5.18;;;;;;;;;;5108596;28;20040;-71
2023/03/22 14:07:58;;;;;;;17.73;5.15;;;;;;;;;;5111603;28;20031;-72
2023/03/22 14:10:36;;;;;;;13.02;4.97;;;;;;;;;;5113482;28;20303;-73
2023/03/22 14:13:02;;;;;;;11.07;4.75;;;;;;;;;;5115445;28;20034;-73
2023/03/22 14:15:29;;;;;;;17.15;5.47;;;;;;;;;;5115520;28;20027;-72
2023/03/22 14:18:19;;;;;;;21.00;5.20;;;;;;;;;;5114278;28;20068;-73
2023/03/22 14:20:47;;;;;;;15.80;4.93;;;;;;;;;;5104873;28;20290;-72
2023/03/22 14:23:13;;;;;;;18.77;4.70;;;;;;;;;;5115320;28;20032;-72
2023/03/22 14:25:39;;;;;;;19.67;4.57;;;;;;;;;;5115337;28;20059;-73
2023/03/22 14:28:06;;;;;;;15.65;4.10;;;;;;;;;;5115106;28;20032;-72
2023/03/22 14:30:32;;;;;;;15.07;4.45;;;;;;;;;;5113162;28;20484;-71
2023/03/22 14:33:00;;;;;;;20.95;4.32;;;;;;;;;;5115228;28;20043;-71